createdAt,value
2022-12-11T00:00:58.759Z,3.26
2022-12-11T00:04:01.238Z,3.21
2022-12-11T00:07:03.525Z,3.17
2022-12-11T00:10:06.490Z,3.16
2022-12-11T00:13:08.725Z,3.09
2022-12-11T00:16:11.597Z,3.09
2022-12-11T00:19:13.828Z,3.04
2022-12-11T00:22:16.677Z,2.98
2022-12-11T00:25:18.910Z,2.92
2022-12-11T00:28:21.590Z,2.88
2022-12-11T00:31:23.943Z,2.88
2022-12-11T00:34:26.687Z,2.85
2022-12-11T00:37:28.953Z,2.85
2022-12-11T00:40:33.834Z,2.83
2022-12-11T00:43:36.256Z,2.79
2022-12-11T00:46:38.806Z,2.75
2022-12-11T00:49:45.103Z,2.70
2022-12-11T00:52:50.737Z,2.75
2022-12-11T00:55:53.226Z,2.74
2022-12-11T00:58:55.875Z,2.73
2022-12-11T01:01:58.053Z,2.67
2022-12-11T01:05:00.913Z,2.64
2022-12-11T01:08:03.769Z,2.64
2022-12-11T01:11:07.781Z,2.61
2022-12-11T01:14:12.956Z,2.58
2022-12-11T01:17:15.499Z,2.58
2022-12-11T01:20:18.289Z,2.53
2022-12-11T01:23:20.810Z,2.49
2022-12-11T01:26:23.566Z,2.44
2022-12-11T01:29:26.442Z,2.44
2022-12-11T01:32:28.732Z,2.38
2022-12-11T01:35:31.247Z,2.36
2022-12-11T01:38:33.738Z,2.36
2022-12-11T01:41:36.345Z,2.31
2022-12-11T01:44:38.535Z,2.26
2022-12-11T01:47:41.126Z,2.20
2022-12-11T01:50:49.185Z,2.17
2022-12-11T01:53:54.448Z,2.17
2022-12-11T01:56:58.967Z,2.11
2022-12-11T02:00:01.469Z,2.07
2022-12-11T02:03:03.891Z,2.03
2022-12-11T02:06:06.504Z,2.04
2022-12-11T02:09:13.744Z,1.96
2022-12-11T02:12:22.315Z,1.93
2022-12-11T02:15:27.358Z,1.88
2022-12-11T02:18:33.101Z,1.90
2022-12-11T02:21:38.125Z,1.80
2022-12-11T02:24:47.048Z,1.73
2022-12-11T02:28:09.505Z,1.66
2022-12-11T02:31:29.773Z,1.62
2022-12-11T02:34:41.070Z,1.59
2022-12-11T02:37:45.398Z,1.50
2022-12-11T02:40:49.577Z,1.46
2022-12-11T02:43:53.153Z,1.43
2022-12-11T02:46:55.782Z,1.39
2022-12-11T02:50:00.028Z,1.37
2022-12-11T02:53:02.963Z,1.37
2022-12-11T02:56:14.174Z,1.34
2022-12-11T02:59:23.558Z,1.33
2022-12-11T03:02:26.106Z,1.32
2022-12-11T03:05:29.472Z,1.29
2022-12-11T03:08:32.361Z,1.25
2022-12-11T03:11:34.514Z,1.24
2022-12-11T03:14:38.661Z,1.18
2022-12-11T03:17:46.369Z,1.15
2022-12-11T03:21:02.329Z,1.18
2022-12-11T03:24:04.661Z,1.17
2022-12-11T03:27:19.576Z,1.12
2022-12-11T03:30:23.715Z,1.11
2022-12-11T03:33:40.368Z,1.08
2022-12-11T03:36:43.702Z,1.06
2022-12-11T03:39:48.785Z,1.06
2022-12-11T03:42:52.601Z,1.03
2022-12-11T03:45:55.559Z,1.01
2022-12-11T03:49:04.026Z,1.03
2022-12-11T03:52:07.620Z,1.07
2022-12-11T03:55:10.910Z,1.02
2022-12-11T03:58:13.582Z,1.02
2022-12-11T04:01:15.737Z,1.00
2022-12-11T04:04:18.520Z,1.02
2022-12-11T04:07:20.752Z,1.00
2022-12-11T04:10:23.413Z,0.99
2022-12-11T04:13:25.636Z,0.98
2022-12-11T04:16:28.210Z,0.95
2022-12-11T04:19:49.765Z,0.93
2022-12-11T04:23:11.075Z,0.93
2022-12-11T04:26:17.971Z,0.96
2022-12-11T04:29:20.776Z,0.95
2022-12-11T04:32:23.017Z,0.96
2022-12-11T04:35:25.597Z,0.93
2022-12-11T04:38:27.945Z,0.92
2022-12-11T04:41:30.511Z,0.93
2022-12-11T04:44:33.478Z,0.91
2022-12-11T04:47:36.433Z,0.93
2022-12-11T04:50:38.902Z,0.94
2022-12-11T04:53:41.732Z,0.93
2022-12-11T04:56:44.017Z,0.92
2022-12-11T04:59:46.659Z,0.94
2022-12-11T05:02:49.054Z,0.94
2022-12-11T05:05:52.744Z,0.94
2022-12-11T05:08:55.083Z,0.97
2022-12-11T05:11:57.631Z,0.99
2022-12-11T05:15:00.128Z,1.00
2022-12-11T05:18:03.706Z,1.03
2022-12-11T05:21:10.615Z,1.05
2022-12-11T05:24:13.201Z,1.05
2022-12-11T05:27:15.526Z,1.06
2022-12-11T05:30:18.238Z,1.07
2022-12-11T05:33:20.400Z,1.10
2022-12-11T05:36:24.452Z,1.11
2022-12-11T05:39:26.715Z,1.12
2022-12-11T05:42:29.366Z,1.12
2022-12-11T05:45:31.570Z,1.11
2022-12-11T05:48:34.628Z,1.14
2022-12-11T05:51:37.082Z,1.14
2022-12-11T05:54:39.554Z,1.12
2022-12-11T05:57:41.751Z,1.11
2022-12-11T06:00:44.516Z,1.11
2022-12-11T06:03:47.476Z,1.11
2022-12-11T06:06:49.750Z,1.10
2022-12-11T06:09:52.262Z,1.13
2022-12-11T06:12:54.575Z,1.12
2022-12-11T06:16:00.375Z,1.14
2022-12-11T06:19:02.805Z,1.10
2022-12-11T06:22:05.396Z,1.09
2022-12-11T06:25:08.152Z,1.09
2022-12-11T06:28:11.513Z,1.15
2022-12-11T06:31:14.473Z,1.12
2022-12-11T06:34:18.209Z,1.10
2022-12-11T06:37:20.482Z,1.15
2022-12-11T06:40:23.128Z,1.18
2022-12-11T06:43:25.430Z,1.16
2022-12-11T06:46:27.942Z,1.20
2022-12-11T06:49:30.575Z,1.20
2022-12-11T06:52:33.324Z,1.17
2022-12-11T06:55:36.338Z,1.14
2022-12-11T06:58:38.881Z,1.09
2022-12-11T07:01:41.150Z,1.08
2022-12-11T07:04:43.673Z,1.14
2022-12-11T07:07:45.900Z,1.17
2022-12-11T07:10:48.461Z,1.26
2022-12-11T07:13:51.031Z,1.27
2022-12-11T07:16:55.472Z,1.28
2022-12-11T07:19:57.670Z,1.31
2022-12-11T07:23:02.084Z,1.35
2022-12-11T07:26:07.365Z,1.42
2022-12-11T07:29:09.943Z,1.50
2022-12-11T07:32:12.336Z,1.59
2022-12-11T07:35:15.194Z,1.66
2022-12-11T07:38:17.685Z,1.74
2022-12-11T07:41:20.442Z,1.84
2022-12-11T07:44:28.070Z,1.93
2022-12-11T07:47:30.571Z,2.03
2022-12-11T07:50:39.769Z,2.12
2022-12-11T07:53:46.652Z,2.21
2022-12-11T07:56:53.519Z,2.25
2022-12-11T07:59:56.684Z,2.37
2022-12-11T08:02:59.073Z,2.49
2022-12-11T08:06:01.574Z,2.34
2022-12-11T08:09:05.917Z,2.17
2022-12-11T08:12:08.402Z,2.12
2022-12-11T08:15:10.913Z,2.06
2022-12-11T08:18:13.645Z,2.05
2022-12-11T08:21:17.925Z,2.07
2022-12-11T08:24:20.957Z,2.07
2022-12-11T08:27:23.180Z,2.06
2022-12-11T08:30:25.674Z,2.12
2022-12-11T08:33:28.086Z,2.07
2022-12-11T08:36:31.144Z,1.99
2022-12-11T08:39:33.698Z,2.01
2022-12-11T08:42:36.327Z,2.11
2022-12-11T08:45:39.267Z,2.14
2022-12-11T08:48:42.900Z,2.07
2022-12-11T08:51:45.158Z,2.06
2022-12-11T08:54:48.388Z,2.01
2022-12-11T08:57:50.781Z,2.06
2022-12-11T09:00:53.971Z,2.00
2022-12-11T09:03:56.678Z,2.02
2022-12-11T09:06:59.145Z,1.99
2022-12-11T09:10:01.738Z,1.97
2022-12-11T09:13:04.487Z,2.08
2022-12-11T09:16:08.001Z,2.09
2022-12-11T09:19:14.432Z,2.04
2022-12-11T09:22:16.799Z,2.02
2022-12-11T09:25:19.379Z,2.13
2022-12-11T09:28:22.263Z,2.09
2022-12-11T09:31:27.568Z,2.14
2022-12-11T09:34:29.799Z,2.16
2022-12-11T09:37:33.603Z,2.19
2022-12-11T09:40:43.269Z,2.13
2022-12-11T09:44:09.138Z,2.11
2022-12-11T09:47:17.663Z,2.26
2022-12-11T09:50:26.551Z,2.28
2022-12-11T09:53:36.288Z,2.23
2022-12-11T09:56:54.291Z,2.22
2022-12-11T10:00:05.729Z,2.20
2022-12-11T10:03:11.584Z,2.22
2022-12-11T10:06:21.060Z,2.18
2022-12-11T10:09:31.550Z,2.23
2022-12-11T10:12:42.829Z,2.17
2022-12-11T10:15:48.041Z,2.25
2022-12-11T10:18:50.924Z,2.34
2022-12-11T10:21:54.095Z,2.30
2022-12-11T10:25:10.767Z,2.41
2022-12-11T10:28:15.034Z,2.33
2022-12-11T10:31:19.099Z,2.40
2022-12-11T10:34:24.800Z,2.44
2022-12-11T10:37:27.242Z,2.43
2022-12-11T10:40:32.286Z,2.37
2022-12-11T10:43:41.634Z,2.40
2022-12-11T10:46:44.615Z,2.30
2022-12-11T10:49:58.444Z,2.32
2022-12-11T10:53:01.535Z,2.29
2022-12-11T10:56:03.801Z,2.27
2022-12-11T10:59:06.850Z,2.19
2022-12-11T11:02:21.587Z,2.16
2022-12-11T11:05:36.885Z,2.18
2022-12-11T11:08:44.377Z,2.22
2022-12-11T11:11:49.963Z,2.25
2022-12-11T11:14:59.098Z,2.18
2022-12-11T11:18:09.836Z,2.14
2022-12-11T11:21:19.033Z,2.14
2022-12-11T11:24:24.639Z,2.24
2022-12-11T11:27:29.950Z,2.30
2022-12-11T11:30:36.700Z,2.29
2022-12-11T11:33:59.315Z,2.41
2022-12-11T11:37:05.967Z,2.44
2022-12-11T11:40:13.742Z,2.47
2022-12-11T11:43:16.804Z,2.55
2022-12-11T11:46:18.997Z,2.61
2022-12-11T11:49:25.799Z,2.64
2022-12-11T11:52:30.783Z,2.63
2022-12-11T11:55:53.558Z,2.50
2022-12-11T11:59:00.080Z,2.41
2022-12-11T12:02:02.850Z,2.49
2022-12-11T12:05:05.601Z,2.43
2022-12-11T12:08:17.625Z,2.39
2022-12-11T12:11:52.990Z,2.41
2022-12-11T12:14:58.062Z,2.49
2022-12-11T12:18:00.587Z,2.50
2022-12-11T12:21:05.898Z,2.48
2022-12-11T12:24:08.592Z,2.52
2022-12-11T12:27:50.403Z,2.51
2022-12-11T12:30:49.831Z,2.52
2022-12-11T12:33:52.410Z,2.52
2022-12-11T12:37:12.650Z,2.52
2022-12-11T12:40:24.754Z,2.47
2022-12-11T12:43:46.147Z,2.46
2022-12-11T12:46:54.689Z,2.40
2022-12-11T12:49:59.466Z,2.43
2022-12-11T12:53:02.182Z,2.42
2022-12-11T12:56:05.844Z,2.37
2022-12-11T12:59:25.093Z,2.38
2022-12-11T13:02:28.343Z,2.39
2022-12-11T13:05:32.787Z,2.40
2022-12-11T13:08:41.952Z,2.42
2022-12-11T13:11:45.298Z,2.43
2022-12-11T13:14:56.108Z,2.45
2022-12-11T13:17:59.165Z,2.48
2022-12-11T13:21:21.764Z,2.41
2022-12-11T13:24:25.738Z,2.44
2022-12-11T13:27:34.487Z,2.43
2022-12-11T13:30:37.146Z,2.45
2022-12-11T13:33:47.157Z,2.45
2022-12-11T13:36:50.693Z,2.42
2022-12-11T13:39:53.370Z,2.34
2022-12-11T13:42:57.129Z,2.33
2022-12-11T13:46:01.710Z,2.28
2022-12-11T13:49:06.782Z,2.29
2022-12-11T13:52:20.626Z,2.20
2022-12-11T13:55:27.835Z,2.13
2022-12-11T13:58:33.969Z,2.06
2022-12-11T14:01:36.394Z,2.07
2022-12-11T14:04:39.611Z,2.10
2022-12-11T14:07:44.042Z,2.10
2022-12-11T14:10:51.283Z,2.07
2022-12-11T14:13:54.747Z,2.07
2022-12-11T14:16:57.392Z,2.07
2022-12-11T14:20:01.739Z,2.02
2022-12-11T14:23:05.271Z,2.06
2022-12-11T14:26:17.940Z,1.96
2022-12-11T14:29:32.974Z,1.91
2022-12-11T14:32:36.905Z,1.94
2022-12-11T14:35:41.658Z,1.89
2022-12-11T14:38:46.373Z,1.85
2022-12-11T14:41:53.409Z,1.81
2022-12-11T14:44:58.166Z,1.81
2022-12-11T14:48:01.909Z,1.74
2022-12-11T14:51:07.760Z,1.71
2022-12-11T14:54:36.489Z,1.73
2022-12-11T14:57:40.408Z,1.74
2022-12-11T15:00:44.039Z,1.70
2022-12-11T15:03:46.613Z,1.66
2022-12-11T15:06:50.673Z,1.62
2022-12-11T15:09:52.906Z,1.62
2022-12-11T15:12:55.646Z,1.62
2022-12-11T15:15:58.614Z,1.56
2022-12-11T15:19:04.350Z,1.56
2022-12-11T15:22:08.848Z,1.54
2022-12-11T15:25:22.227Z,1.58
2022-12-11T15:28:30.433Z,1.58
2022-12-11T15:31:35.125Z,1.51
2022-12-11T15:34:45.365Z,1.47
2022-12-11T15:37:52.542Z,1.43
2022-12-11T15:40:55.542Z,1.44
2022-12-11T15:43:59.332Z,1.39
2022-12-11T15:47:11.059Z,1.39
2022-12-11T15:50:18.368Z,1.30
2022-12-11T15:53:20.687Z,1.32
2022-12-11T15:56:23.341Z,1.29
2022-12-11T15:59:25.730Z,1.26
2022-12-11T16:02:28.413Z,1.24
2022-12-11T16:05:31.341Z,1.19
2022-12-11T16:08:33.826Z,1.21
2022-12-11T16:11:36.889Z,1.20
2022-12-11T16:14:39.407Z,1.19
2022-12-11T16:17:41.979Z,1.17
2022-12-11T16:20:45.271Z,1.17
2022-12-11T16:23:48.255Z,1.14
2022-12-11T16:26:50.754Z,1.13
2022-12-11T16:29:53.556Z,1.16
2022-12-11T16:32:56.106Z,1.12
2022-12-11T16:35:59.193Z,1.10
2022-12-11T16:39:01.614Z,1.15
2022-12-11T16:42:05.195Z,1.14
2022-12-11T16:45:10.794Z,1.08
2022-12-11T16:48:13.514Z,1.06
2022-12-11T16:51:16.321Z,1.06
2022-12-11T16:54:18.953Z,1.02
2022-12-11T16:57:21.582Z,1.01
2022-12-11T17:00:24.185Z,0.99
2022-12-11T17:03:26.546Z,0.99
2022-12-11T17:06:29.408Z,0.92
2022-12-11T17:09:32.442Z,0.92
2022-12-11T17:12:35.143Z,0.90
2022-12-11T17:15:44.409Z,0.83
2022-12-11T17:18:48.042Z,0.81
2022-12-11T17:21:51.866Z,0.85
2022-12-11T17:24:54.941Z,0.82
2022-12-11T17:27:57.171Z,0.81
2022-12-11T17:31:04.144Z,0.80
2022-12-11T17:34:07.132Z,0.82
2022-12-11T17:37:09.671Z,0.79
2022-12-11T17:40:18.914Z,0.82
2022-12-11T17:43:21.705Z,0.80
2022-12-11T17:46:24.080Z,0.81
2022-12-11T17:49:26.793Z,0.78
2022-12-11T17:52:34.017Z,0.79
2022-12-11T17:55:44.210Z,0.76
2022-12-11T17:58:46.652Z,0.72
2022-12-11T18:01:49.415Z,0.76
2022-12-11T18:04:52.368Z,0.76
2022-12-11T18:07:57.884Z,0.76
2022-12-11T18:11:08.797Z,0.73
2022-12-11T18:14:16.728Z,0.71
2022-12-11T18:17:20.805Z,0.68
2022-12-11T18:20:24.359Z,0.68
2022-12-11T18:23:27.095Z,0.69
2022-12-11T18:26:29.314Z,0.65
2022-12-11T18:29:31.869Z,0.64
2022-12-11T18:32:34.281Z,0.63
2022-12-11T18:35:36.850Z,0.66
2022-12-11T18:38:39.558Z,0.66
2022-12-11T18:41:42.195Z,0.65
2022-12-11T18:44:45.478Z,0.62
2022-12-11T18:47:50.095Z,0.58
2022-12-11T18:50:52.547Z,0.59
2022-12-11T18:53:55.202Z,0.57
2022-12-11T18:56:57.536Z,0.62
2022-12-11T19:00:07.134Z,0.60
2022-12-11T19:03:09.616Z,0.57
2022-12-11T19:06:13.730Z,0.54
2022-12-11T19:09:16.049Z,0.52
2022-12-11T19:12:18.721Z,0.52
2022-12-11T19:15:23.967Z,0.55
2022-12-11T19:18:26.938Z,0.54
2022-12-11T19:21:29.207Z,0.57
2022-12-11T19:24:31.997Z,0.56
2022-12-11T19:27:34.161Z,0.51
2022-12-11T19:30:42.014Z,0.47
2022-12-11T19:33:44.350Z,0.47
2022-12-11T19:36:46.905Z,0.45
2022-12-11T19:39:49.340Z,0.45
2022-12-11T19:42:52.215Z,0.42
2022-12-11T19:45:54.486Z,0.41
2022-12-11T19:48:57.600Z,0.40
2022-12-11T19:51:59.858Z,0.40
2022-12-11T19:55:04.249Z,0.39
2022-12-11T19:58:06.534Z,0.41
2022-12-11T20:01:09.578Z,0.40
2022-12-11T20:04:14.753Z,0.41
2022-12-11T20:07:17.483Z,0.37
2022-12-11T20:10:20.158Z,0.34
2022-12-11T20:13:22.611Z,0.32
2022-12-11T20:16:46.361Z,0.32
2022-12-11T20:19:47.859Z,0.23
2022-12-11T20:22:54.757Z,0.19
2022-12-11T20:25:59.040Z,0.19
2022-12-11T20:29:05.141Z,0.16
2022-12-11T20:32:07.559Z,0.13
2022-12-11T20:35:10.618Z,0.07
2022-12-11T20:38:13.213Z,0.02
2022-12-11T20:41:17.619Z,0.04
2022-12-11T20:44:20.202Z,0.03
2022-12-11T20:47:23.041Z,-0.04
2022-12-11T20:50:25.403Z,-0.05
2022-12-11T20:53:28.575Z,-0.05
2022-12-11T20:56:31.238Z,-0.06
2022-12-11T20:59:34.093Z,-0.12
2022-12-11T21:02:36.364Z,-0.16
2022-12-11T21:05:42.507Z,-0.17
2022-12-11T21:08:44.834Z,-0.19
2022-12-11T21:11:47.321Z,-0.20
2022-12-11T21:14:49.633Z,-0.17
2022-12-11T21:17:52.159Z,-0.21
2022-12-11T21:20:57.875Z,-0.24
2022-12-11T21:24:00.514Z,-0.24
2022-12-11T21:27:02.887Z,-0.30
2022-12-11T21:30:05.887Z,-0.29
2022-12-11T21:33:08.327Z,-0.27
2022-12-11T21:36:11.983Z,-0.33
2022-12-11T21:39:14.374Z,-0.35
2022-12-11T21:42:16.930Z,-0.35
2022-12-11T21:45:59.124Z,-0.40
2022-12-11T21:48:42.734Z,-0.49
2022-12-11T21:51:47.402Z,-0.53
2022-12-11T21:54:50.307Z,-0.53
2022-12-11T21:57:53.615Z,-0.55
2022-12-11T22:00:56.396Z,-0.63
2022-12-11T22:03:59.008Z,-0.63
2022-12-11T22:07:01.493Z,-0.68
2022-12-11T22:10:05.304Z,-0.67
2022-12-11T22:13:07.622Z,-0.71
2022-12-11T22:16:10.221Z,-0.73
2022-12-11T22:19:12.554Z,-0.68
2022-12-11T22:22:15.253Z,-0.71
2022-12-11T22:25:17.553Z,-0.74
2022-12-11T22:28:20.109Z,-0.71
2022-12-11T22:31:23.181Z,-0.77
2022-12-11T22:34:25.678Z,-0.74
2022-12-11T22:37:29.020Z,-0.81
2022-12-11T22:40:32.165Z,-0.81
2022-12-11T22:43:34.369Z,-0.91
2022-12-11T22:46:37.579Z,-0.94
2022-12-11T22:49:39.805Z,-0.96
2022-12-11T22:52:42.846Z,-0.99
2022-12-11T22:55:45.531Z,-1.05
2022-12-11T22:58:48.057Z,-1.08
2022-12-11T23:01:50.394Z,-1.11
2022-12-11T23:04:53.013Z,-1.06
2022-12-11T23:07:55.490Z,-1.10
2022-12-11T23:10:58.490Z,-1.15
2022-12-11T23:14:01.193Z,-1.16
2022-12-11T23:17:03.845Z,-1.22
2022-12-11T23:20:07.907Z,-1.25
2022-12-11T23:23:10.940Z,-1.27
2022-12-11T23:26:14.718Z,-1.24
2022-12-11T23:29:17.592Z,-1.27
2022-12-11T23:32:20.179Z,-1.26
2022-12-11T23:35:23.884Z,-1.24
2022-12-11T23:38:27.409Z,-1.30
2022-12-11T23:41:29.888Z,-1.32
2022-12-11T23:44:32.209Z,-1.32
2022-12-11T23:47:34.706Z,-1.30
2022-12-11T23:50:37.971Z,-1.37
2022-12-11T23:53:40.738Z,-1.40
2022-12-11T23:56:42.954Z,-1.40
2022-12-11T23:59:45.533Z,-1.40
